<?xml version="1.0" encoding="UTF-8" standalone="no" ?>
<gpx xmlns="http://www.topografix.com/GPX/1/1" xmlns:xsi="http://www.w3.org/2001/XMLSchema-instance" xsi:schemaLocation="http://www.topografix.com/GPX/1/1 http://www.topografix.com/GPX/1/1/gpx.xsd" version="1.1" creator="VisuGPX - https://www.visugpx.com">
  <metadata>
    <name>GRPMelusine_J5_J9</name>
    <desc><![CDATA[gnerando idor: 12434239_12434246_12434251_12431499_12431542]]></desc>
  </metadata>
  <trk>
    <name><![CDATA[GRPMelusineJ5_StMichelC_Vouvant_20.5km-12434239]]></name>
    <extensions>
      <line xmlns="http://www.topografix.com/GPX/gpx_style/0/2">
        <color>FF0000</color>
        <width>4</width>
      </line>
    </extensions>
    <trkseg>
      <trkpt lat="46.48539" lon="-0.75205">
        <ele>91</ele>
        <time>2023-10-30T09:48:30Z</time>
      </trkpt>
      <trkpt lat="46.48451" lon="-0.75437">
        <ele>83</ele>
        <time>2023-10-30T09:52:33Z</time>
      </trkpt>
      <trkpt lat="46.48622" lon="-0.756">
        <ele>84</ele>
        <time>2023-10-30T09:57:06Z</time>
      </trkpt>
      <trkpt lat="46.48581" lon="-0.7614">
        <ele>65</ele>
        <time>2023-10-30T10:05:26Z</time>
      </trkpt>
      <trkpt lat="46.48084" lon="-0.7663">
        <ele>41</ele>
        <time>2023-10-30T10:18:47Z</time>
      </trkpt>
      <trkpt lat="46.48232" lon="-0.77136">
        <ele>50</ele>
        <time>2023-10-30T10:27:12Z</time>
      </trkpt>
      <trkpt lat="46.48888" lon="-0.76261">
        <ele>79</ele>
        <time>2023-10-30T10:47:01Z</time>
      </trkpt>
      <trkpt lat="46.49296" lon="-0.76578">
        <ele>80</ele>
        <time>2023-10-30T10:57:18Z</time>
      </trkpt>
      <trkpt lat="46.49319" lon="-0.76818">
        <ele>70</ele>
        <time>2023-10-30T11:01:01Z</time>
      </trkpt>
      <trkpt lat="46.49473" lon="-0.77024">
        <ele>84</ele>
        <time>2023-10-30T11:05:40Z</time>
      </trkpt>
      <trkpt lat="46.49491" lon="-0.77351">
        <ele>82</ele>
        <time>2023-10-30T11:10:42Z</time>
      </trkpt>
      <trkpt lat="46.4965" lon="-0.77436">
        <ele>80</ele>
        <time>2023-10-30T11:14:28Z</time>
      </trkpt>
      <trkpt lat="46.49455" lon="-0.78192">
        <ele>75</ele>
        <time>2023-10-30T11:26:49Z</time>
      </trkpt>
      <trkpt lat="46.49502" lon="-0.78355">
        <ele>75</ele>
        <time>2023-10-30T11:29:32Z</time>
      </trkpt>
      <trkpt lat="46.49627" lon="-0.7826">
        <ele>74</ele>
        <time>2023-10-30T11:32:40Z</time>
      </trkpt>
      <trkpt lat="46.50058" lon="-0.78604">
        <ele>39</ele>
        <time>2023-10-30T11:43:36Z</time>
      </trkpt>
      <trkpt lat="46.49946" lon="-0.78346">
        <ele>46</ele>
        <time>2023-10-30T11:48:16Z</time>
      </trkpt>
      <trkpt lat="46.50117" lon="-0.78432">
        <ele>27</ele>
        <time>2023-10-30T11:52:18Z</time>
      </trkpt>
      <trkpt lat="46.50383" lon="-0.79316">
        <ele>38</ele>
        <time>2023-10-30T12:07:04Z</time>
      </trkpt>
      <trkpt lat="46.50153" lon="-0.79392">
        <ele>25</ele>
        <time>2023-10-30T12:12:19Z</time>
      </trkpt>
      <trkpt lat="46.50013" lon="-0.79514">
        <ele>21</ele>
        <time>2023-10-30T12:15:57Z</time>
      </trkpt>
      <trkpt lat="46.50045" lon="-0.79626">
        <ele>34</ele>
        <time>2023-10-30T12:17:48Z</time>
      </trkpt>
      <trkpt lat="46.50147" lon="-0.7965">
        <ele>46</ele>
        <time>2023-10-30T12:20:06Z</time>
      </trkpt>
      <trkpt lat="46.50631" lon="-0.79505">
        <ele>88</ele>
        <time>2023-10-30T12:31:06Z</time>
      </trkpt>
      <trkpt lat="46.50578" lon="-0.79084">
        <ele>85</ele>
        <time>2023-10-30T12:37:39Z</time>
      </trkpt>
      <trkpt lat="46.51062" lon="-0.78844">
        <ele>86</ele>
        <time>2023-10-30T12:49:01Z</time>
      </trkpt>
      <trkpt lat="46.51251" lon="-0.79273">
        <ele>80</ele>
        <time>2023-10-30T12:56:49Z</time>
      </trkpt>
      <trkpt lat="46.51393" lon="-0.78938">
        <ele>72</ele>
        <time>2023-10-30T13:02:50Z</time>
      </trkpt>
      <trkpt lat="46.51487" lon="-0.78921">
        <ele>70</ele>
        <time>2023-10-30T13:04:57Z</time>
      </trkpt>
      <trkpt lat="46.51417" lon="-0.78732">
        <ele>57</ele>
        <time>2023-10-30T13:08:14Z</time>
      </trkpt>
      <trkpt lat="46.5147" lon="-0.78449">
        <ele>49</ele>
        <time>2023-10-30T13:12:43Z</time>
      </trkpt>
      <trkpt lat="46.51777" lon="-0.78329">
        <ele>51</ele>
        <time>2023-10-30T13:19:47Z</time>
      </trkpt>
      <trkpt lat="46.5196" lon="-0.78415">
        <ele>57</ele>
        <time>2023-10-30T13:24:04Z</time>
      </trkpt>
      <trkpt lat="46.52102" lon="-0.7875">
        <ele>75</ele>
        <time>2023-10-30T13:30:05Z</time>
      </trkpt>
      <trkpt lat="46.52297" lon="-0.78741">
        <ele>90</ele>
        <time>2023-10-30T13:34:26Z</time>
      </trkpt>
      <trkpt lat="46.52946" lon="-0.7778">
        <ele>95</ele>
        <time>2023-10-30T13:55:02Z</time>
      </trkpt>
      <trkpt lat="46.53136" lon="-0.77462">
        <ele>78</ele>
        <time>2023-10-30T14:01:29Z</time>
      </trkpt>
      <trkpt lat="46.53273" lon="-0.77386">
        <ele>55</ele>
        <time>2023-10-30T14:04:44Z</time>
      </trkpt>
      <trkpt lat="46.53245" lon="-0.77544">
        <ele>61</ele>
        <time>2023-10-30T14:07:14Z</time>
      </trkpt>
      <trkpt lat="46.53372" lon="-0.77335">
        <ele>51</ele>
        <time>2023-10-30T14:11:30Z</time>
      </trkpt>
      <trkpt lat="46.53284" lon="-0.77222">
        <ele>62</ele>
        <time>2023-10-30T14:14:07Z</time>
      </trkpt>
      <trkpt lat="46.53052" lon="-0.77192">
        <ele>51</ele>
        <time>2023-10-30T14:19:18Z</time>
      </trkpt>
      <trkpt lat="46.53024" lon="-0.76942">
        <ele>51</ele>
        <time>2023-10-30T14:23:10Z</time>
      </trkpt>
      <trkpt lat="46.53108" lon="-0.76896">
        <ele>72</ele>
        <time>2023-10-30T14:25:10Z</time>
      </trkpt>
      <trkpt lat="46.53158" lon="-0.76712">
        <ele>85</ele>
        <time>2023-10-30T14:28:12Z</time>
      </trkpt>
      <trkpt lat="46.53" lon="-0.76564">
        <ele>93</ele>
        <time>2023-10-30T14:32:22Z</time>
      </trkpt>
      <trkpt lat="46.52936" lon="-0.76727">
        <ele>63</ele>
        <time>2023-10-30T14:35:15Z</time>
      </trkpt>
      <trkpt lat="46.5275" lon="-0.76835">
        <ele>51</ele>
        <time>2023-10-30T14:39:42Z</time>
      </trkpt>
      <trkpt lat="46.52677" lon="-0.76753">
        <ele>47</ele>
        <time>2023-10-30T14:41:45Z</time>
      </trkpt>
      <trkpt lat="46.52919" lon="-0.76431">
        <ele>56</ele>
        <time>2023-10-30T14:49:03Z</time>
      </trkpt>
      <trkpt lat="46.5295" lon="-0.76299">
        <ele>57</ele>
        <time>2023-10-30T14:51:11Z</time>
      </trkpt>
      <trkpt lat="46.52905" lon="-0.76115">
        <ele>44</ele>
        <time>2023-10-30T14:54:10Z</time>
      </trkpt>
      <trkpt lat="46.53077" lon="-0.76079">
        <ele>46</ele>
        <time>2023-10-30T14:58:02Z</time>
      </trkpt>
      <trkpt lat="46.53196" lon="-0.76243">
        <ele>66</ele>
        <time>2023-10-30T15:01:41Z</time>
      </trkpt>
      <trkpt lat="46.53389" lon="-0.76049">
        <ele>49</ele>
        <time>2023-10-30T15:06:54Z</time>
      </trkpt>
      <trkpt lat="46.53575" lon="-0.761">
        <ele>48</ele>
        <time>2023-10-30T15:11:07Z</time>
      </trkpt>
      <trkpt lat="46.53793" lon="-0.75901">
        <ele>59</ele>
        <time>2023-10-30T15:16:50Z</time>
      </trkpt>
      <trkpt lat="46.5406" lon="-0.75855">
        <ele>70</ele>
        <time>2023-10-30T15:22:49Z</time>
      </trkpt>
      <trkpt lat="46.5439" lon="-0.75559">
        <ele>65</ele>
        <time>2023-10-30T15:31:26Z</time>
      </trkpt>
      <trkpt lat="46.54678" lon="-0.75191">
        <ele>63</ele>
        <time>2023-10-30T15:39:58Z</time>
      </trkpt>
      <trkpt lat="46.55106" lon="-0.75242">
        <ele>76</ele>
        <time>2023-10-30T15:49:31Z</time>
      </trkpt>
      <trkpt lat="46.55264" lon="-0.75344">
        <ele>77</ele>
        <time>2023-10-30T15:53:22Z</time>
      </trkpt>
      <trkpt lat="46.55552" lon="-0.75314">
        <ele>80</ele>
        <time>2023-10-30T15:59:47Z</time>
      </trkpt>
      <trkpt lat="46.55692" lon="-0.75472">
        <ele>79</ele>
        <time>2023-10-30T16:03:44Z</time>
      </trkpt>
      <trkpt lat="46.55945" lon="-0.75492">
        <ele>87</ele>
        <time>2023-10-30T16:09:22Z</time>
      </trkpt>
      <trkpt lat="46.55885" lon="-0.75686">
        <ele>87</ele>
        <time>2023-10-30T16:12:37Z</time>
      </trkpt>
      <trkpt lat="46.56081" lon="-0.7586">
        <ele>89</ele>
        <time>2023-10-30T16:17:43Z</time>
      </trkpt>
      <trkpt lat="46.55938" lon="-0.76309">
        <ele>81</ele>
        <time>2023-10-30T16:25:17Z</time>
      </trkpt>
      <trkpt lat="46.55955" lon="-0.76656">
        <ele>77</ele>
        <time>2023-10-30T16:30:37Z</time>
      </trkpt>
      <trkpt lat="46.56124" lon="-0.76595">
        <ele>77</ele>
        <time>2023-10-30T16:34:29Z</time>
      </trkpt>
      <trkpt lat="46.56286" lon="-0.76689">
        <ele>79</ele>
        <time>2023-10-30T16:38:22Z</time>
      </trkpt>
    </trkseg>
  </trk>
</gpx>